Terminal Aerodrome Forecast
Issued by NWS

Home | Current Version | Previous Version | Text Only | Print | Product List | Glossary Off
Versions: 1 2 3 4 5 6 7 8 9 10 11 12 13 14 15 16 17 18 19 20 21 22 23 24 25 26 27 28 29 30 31 32 33

000
FTUS43 KABR 191200 AAB
TAFATY
TAF AMD
KATY 191249Z 1913/2012 33017G24KT P6SM BKN018 OVC040
     FM191400 33018G28KT P6SM OVC040
     FM191700 33025G35KT P6SM SCT250
     FM192000 32027G37KT P6SM VCSH BKN050
     FM200100 32018KT P6SM SKC=

USA.gov is the U.S. government's official web portal to all federal, state and local government web resources and services.